Time;durP1;ratioP1;P1;durP2;ratioP2;P2;SDS_P1;SDS_P2;PMS_P1;PMS_P2;Temp;Humidity;BMP_temperature;BMP_pressure;BME280_temperature;BME280_humidity;BME280_pressure;Samples;Min_cycle;Max_cycle;Signal;HPM_P1;HPM_P2
2022/06/04 00:00:24;;;;;;;;;;;;;;;18.82;nan;99413.13;4982729;28;19968;-85
2022/06/04 00:02:50;;;;;;;;;;;;;;;18.84;nan;99427.97;4980395;28;20022;-85
2022/06/04 00:05:17;;;;;;;;;;;;;;;18.83;nan;99423.63;4984176;28;20001;-86
2022/06/04 00:07:42;;;;;;;;;;;;;;;18.74;nan;99417.44;4986516;28;19972;-86
2022/06/04 00:15:40;;;;;;;;;;;;;;;18.60;nan;99409.13;4978894;28;20014;-86
2022/06/04 00:18:06;;;;;;;;;;;;;;;18.61;nan;99414.28;5002417;28;20005;-85
2022/06/04 00:20:31;;;;;;;;;;;;;;;18.63;nan;99428.25;5002253;28;19968;-85
2022/06/04 00:22:57;;;;;;;;;;;;;;;18.63;nan;99417.63;5003228;28;20058;-85
2022/06/04 00:25:23;;;;;;;;;;;;;;;18.63;nan;99420.28;5021008;28;19996;-85
2022/06/04 00:27:48;;;;;;;;;;;;;;;18.63;nan;99420.28;5022560;28;19992;-85
2022/06/04 00:30:13;;;;;;;;;;;;;;;18.61;nan;99427.59;5021687;28;19975;-85
2022/06/04 00:32:39;;;;;;;;;;;;;;;18.61;nan;99430.25;4995892;28;19972;-85
2022/06/04 00:35:05;;;;;;;;;;;;;;;18.61;nan;99426.75;5003130;28;19984;-85
2022/06/04 00:37:34;;;;;;;;;;;;;;;18.59;nan;99424.25;4998318;28;20483;-85
2022/06/04 00:40:02;;;;;;;;;;;;;;;18.60;nan;99425.06;5004850;28;20071;-85
2022/06/04 00:42:28;;;;;;;;;;;;;;;18.56;nan;99421.91;5002866;28;20031;-85
2022/06/04 00:45:13;;;;;;;;;;;;;;;18.52;nan;99428.50;5001399;28;20019;-85
2022/06/04 00:47:40;;;;;;;;;;;;;;;18.48;nan;99427.16;4995976;28;19976;-85
2022/06/04 00:50:05;;;;;;;;;;;;;;;18.48;nan;99427.16;5014474;28;20183;-85
2022/06/04 00:52:32;;;;;;;;;;;;;;;18.51;nan;99432.97;5001923;28;20067;-86
2022/06/04 00:56:15;;;;;;;;;;;;;;;18.54;nan;99442.50;5001733;28;20007;-86
2022/06/04 00:58:46;;;;;;;;;;;;;;;18.51;nan;99456.09;4935241;28;20028;-85
2022/06/04 01:01:26;;;;;;;;;;;;;;;18.44;nan;99457.69;5004629;28;20026;-85
2022/06/04 01:03:51;;;;;;;;;;;;;;;18.39;nan;99454.63;5005030;28;19975;-86
2022/06/04 01:06:19;;;;;;;;;;;;;;;18.37;nan;99453.97;5008768;28;19988;-85
2022/06/04 01:08:44;;;;;;;;;;;;;;;18.34;nan;99447.97;5001179;28;20075;-85
2022/06/04 01:11:28;;;;;;;;;;;;;;;18.32;nan;99455.25;5004988;28;20054;-85
2022/06/04 01:14:16;;;;;;;;;;;;;;;18.30;nan;99462.53;5000679;28;20607;-85
2022/06/04 01:16:48;;;;;;;;;;;;;;;18.24;nan;99451.69;4992163;28;19978;-85
2022/06/04 01:19:25;;;;;;;;;;;;;;;18.22;nan;99448.31;5006791;28;20548;-85
2022/06/04 01:22:12;;;;;;;;;;;;;;;18.22;nan;99459.78;4996301;28;20071;-86
2022/06/04 01:24:52;;;;;;;;;;;;;;;18.22;nan;99470.44;5003599;28;20090;-85
2022/06/04 01:27:36;;;;;;;;;;;;;;;18.23;nan;99476.59;5009157;28;19991;-85
2022/06/04 01:30:13;;;;;;;;;;;;;;;18.22;nan;99469.59;5009072;28;19987;-85
2022/06/04 01:32:57;;;;;;;;;;;;;;;18.19;nan;99460.09;5006561;28;20045;-84
2022/06/04 01:35:58;;;;;;;;;;;;;;;18.19;nan;99468.06;5001704;28;20498;-85
2022/06/04 01:38:31;;;;;;;;;;;;;;;18.19;nan;99465.41;4920029;29;20380;-85
2022/06/04 01:41:06;;;;;;;;;;;;;;;18.19;nan;99467.25;4997179;28;20003;-85
2022/06/04 01:43:34;;;;;;;;;;;;;;;18.20;nan;99475.06;4999787;28;19972;-85
2022/06/04 01:46:07;;;;;;;;;;;;;;;18.22;nan;99478.41;5006802;28;20505;-85
2022/06/04 01:48:34;;;;;;;;;;;;;;;18.23;nan;99492.56;4998110;28;19976;-85
2022/06/04 01:51:03;;;;;;;;;;;;;;;18.23;nan;99500.53;5004409;28;20095;-85
2022/06/04 01:53:31;;;;;;;;;;;;;;;18.20;nan;99538.03;5004480;28;19991;-85
2022/06/04 01:55:58;;;;;;;;;;;;;;;18.15;nan;99554.44;5003826;28;20067;-85
2022/06/04 01:58:43;;;;;;;;;;;;;;;18.09;nan;99544.38;5003899;28;19972;-85
2022/06/04 02:01:10;;;;;;;;;;;;;;;18.04;nan;99530.72;5008902;28;19972;-85
2022/06/04 02:03:36;;;;;;;;;;;;;;;18.00;nan;99550.59;5007028;28;19949;-85
2022/06/04 02:06:09;;;;;;;;;;;;;;;17.99;nan;99522.34;5011025;28;19950;-84
2022/06/04 02:08:38;;;;;;;;;;;;;;;17.96;nan;99493.38;5010750;28;19949;-84
2022/06/04 02:11:07;;;;;;;;;;;;;;;17.95;nan;99476.59;5008128;28;19935;-85
2022/06/04 02:13:34;;;;;;;;;;;;;;;17.95;nan;99446.53;5009262;28;19945;-85
2022/06/04 02:16:08;;;;;;;;;;;;;;;17.92;nan;99432.56;5005919;28;20421;-84
2022/06/04 02:18:36;;;;;;;;;;;;;;;17.85;nan;99398.78;4999677;28;19996;-85
2022/06/04 02:21:02;;;;;;;;;;;;;;;17.76;nan;99339.34;5008535;28;20197;-85
2022/06/04 02:23:29;;;;;;;;;;;;;;;17.66;nan;99306.69;5016300;28;20403;-85
2022/06/04 02:25:55;;;;;;;;;;;;;;;17.62;nan;99361.97;5011270;28;20373;-85
2022/06/04 02:28:20;;;;;;;;;;;;;;;17.66;nan;99335.91;5003480;28;19992;-84
2022/06/04 02:31:04;;;;;;;;;;;;;;;17.70;nan;99361.22;5012716;28;19972;-85
2022/06/04 02:33:48;;;;;;;;;;;;;;;17.74;nan;99373.22;5006022;28;20025;-85
2022/06/04 02:36:13;;;;;;;;;;;;;;;17.80;nan;99347.91;5007577;28;20075;-85
2022/06/04 02:38:54;;;;;;;;;;;;;;;17.83;nan;99316.56;5002804;28;20085;-85
2022/06/04 02:41:25;;;;;;;;;;;;;;;17.81;nan;99299.94;5008721;28;19976;-85
2022/06/04 02:44:04;;;;;;;;;;;;;;;17.81;nan;99318.53;5007309;28;19975;-85
2022/06/04 02:46:33;;;;;;;;;;;;;;;17.85;nan;99314.59;5005980;28;20070;-85
2022/06/04 02:49:16;;;;;;;;;;;;;;;17.87;nan;99299.31;5001889;28;20560;-85
2022/06/04 02:51:52;;;;;;;;;;;;;;;17.86;nan;99310.94;5011955;28;19976;-85
2022/06/04 02:54:24;;;;;;;;;;;;;;;17.85;nan;99327.88;5013321;28;20440;-85
2022/06/04 02:56:51;;;;;;;;;;;;;;;17.81;nan;99334.47;5008178;28;20164;-85
2022/06/04 02:59:17;;;;;;;;;;;;;;;17.81;nan;99341.59;5008250;28;19999;-84
2022/06/04 03:01:44;;;;;;;;;;;;;;;17.82;nan;99337.94;5012161;28;20169;-85
2022/06/04 03:04:10;;;;;;;;;;;;;;;17.84;nan;99331.50;5006796;28;19968;-85
2022/06/04 03:06:36;;;;;;;;;;;;;;;17.86;nan;99336.69;5006520;28;19996;-85
2022/06/04 03:09:03;;;;;;;;;;;;;;;17.88;nan;99332.06;5004402;28;19971;-85
2022/06/04 03:11:28;;;;;;;;;;;;;;;17.88;nan;99330.22;5007002;28;20396;-85
2022/06/04 03:13:54;;;;;;;;;;;;;;;17.91;nan;99337.88;5006958;28;19976;-85
2022/06/04 03:16:19;;;;;;;;;;;;;;;17.91;nan;99340.53;5004827;28;19972;-84
2022/06/04 03:18:45;;;;;;;;;;;;;;;17.92;nan;99350.19;5007387;28;19976;-86
2022/06/04 03:21:10;;;;;;;;;;;;;;;17.92;nan;99347.53;4998293;28;20699;-85
2022/06/04 03:23:36;;;;;;;;;;;;;;;17.89;nan;99358.47;5011145;28;20457;-84
2022/06/04 03:26:21;;;;;;;;;;;;;;;17.89;nan;99384.19;5005288;28;20114;-85
2022/06/04 03:28:54;;;;;;;;;;;;;;;17.89;nan;99400.16;5006995;28;19987;-85
2022/06/04 03:31:20;;;;;;;;;;;;;;;17.86;nan;99425.19;5003732;28;19968;-86
2022/06/04 03:33:45;;;;;;;;;;;;;;;17.82;nan;99445.09;4995092;28;19988;-86
2022/06/04 03:36:11;;;;;;;;;;;;;;;17.78;nan;99478.19;5003597;28;20067;-86
2022/06/04 03:38:36;;;;;;;;;;;;;;;17.77;nan;99504.91;5007993;28;20439;-86
2022/06/04 03:41:02;;;;;;;;;;;;;;;17.77;nan;99513.72;5005677;28;20017;-86
2022/06/04 03:43:29;;;;;;;;;;;;;;;17.76;nan;99498.75;5003292;28;19972;-86
2022/06/04 03:45:55;;;;;;;;;;;;;;;17.74;nan;99514.03;5005563;28;20346;-85
2022/06/04 03:48:20;;;;;;;;;;;;;;;17.76;nan;99532.47;4997769;28;19968;-85
2022/06/04 03:50:45;;;;;;;;;;;;;;;17.79;nan;99558.75;5000438;28;20026;-85
2022/06/04 03:53:11;;;;;;;;;;;;;;;17.82;nan;99580.59;5000995;28;19976;-85
2022/06/04 03:55:36;;;;;;;;;;;;;;;17.84;nan;99586.56;5009274;28;19983;-85
2022/06/04 03:58:01;;;;;;;;;;;;;;;17.86;nan;99608.53;4999041;28;20055;-85
2022/06/04 04:00:46;;;;;;;;;;;;;;;17.88;nan;99606.56;5006300;28;20268;-84
2022/06/04 04:03:14;;;;;;;;;;;;;;;17.89;nan;99642.78;5009206;28;20426;-85
2022/06/04 04:05:41;;;;;;;;;;;;;;;17.91;nan;99654.13;5010000;28;19995;-85
2022/06/04 04:08:07;;;;;;;;;;;;;;;17.92;nan;99682.34;4996251;28;20063;-85
2022/06/04 04:10:33;;;;;;;;;;;;;;;17.94;nan;99700.00;5008281;28;19983;-86
2022/06/04 04:12:59;;;;;;;;;;;;;;;17.91;nan;99695.81;5006044;28;19976;-84
2022/06/04 04:15:25;;;;;;;;;;;;;;;17.87;nan;99700.53;5011869;28;19976;-85
2022/06/04 04:17:51;;;;;;;;;;;;;;;17.85;nan;99701.69;5005077;28;20026;-85
2022/06/04 04:20:18;;;;;;;;;;;;;;;17.84;nan;99705.31;5000361;28;20889;-85
2022/06/04 04:22:44;;;;;;;;;;;;;;;17.87;nan;99697.06;5007110;28;19972;-85
2022/06/04 04:25:10;;;;;;;;;;;;;;;17.89;nan;99693.28;5004093;28;20369;-85
2022/06/04 04:27:36;;;;;;;;;;;;;;;17.92;nan;99687.66;5005642;28;20031;-84
2022/06/04 04:30:03;;;;;;;;;;;;;;;17.96;nan;99687.38;5000700;28;19972;-85
2022/06/04 04:32:28;;;;;;;;;;;;;;;17.98;nan;99688.91;5009906;28;19975;-85
2022/06/04 04:34:53;;;;;;;;;;;;;;;18.02;nan;99686.81;5002648;28;19976;-85
2022/06/04 04:37:19;;;;;;;;;;;;;;;18.03;nan;99675.19;5002021;28;19973;-85
2022/06/04 04:39:44;;;;;;;;;;;;;;;18.04;nan;99668.94;5007083;28;20480;-84
2022/06/04 04:42:10;;;;;;;;;;;;;;;18.06;nan;99645.69;5000036;28;20061;-86
2022/06/04 04:44:36;;;;;;;;;;;;;;;18.09;nan;99616.13;5000308;28;20058;-86
2022/06/04 04:47:01;;;;;;;;;;;;;;;18.05;nan;99538.53;5007923;28;20023;-85
2022/06/04 04:49:26;;;;;;;;;;;;;;;17.99;nan;99447.94;5001872;28;20425;-85
2022/06/04 04:51:52;;;;;;;;;;;;;;;17.87;nan;99441.97;5001032;28;20051;-85
2022/06/04 04:54:17;;;;;;;;;;;;;;;17.79;nan;99471.09;5003181;28;19980;-85
2022/06/04 04:56:43;;;;;;;;;;;;;;;17.78;nan;99488.00;4999228;28;19976;-85
2022/06/04 04:59:09;;;;;;;;;;;;;;;17.81;nan;99501.84;4993985;28;19984;-85
2022/06/04 05:01:35;;;;;;;;;;;;;;;17.84;nan;99490.09;4992602;28;19980;-85
2022/06/04 05:04:00;;;;;;;;;;;;;;;17.85;nan;99470.53;5002394;28;19975;-85
2022/06/04 05:06:25;;;;;;;;;;;;;;;17.82;nan;99463.69;5000919;28;20923;-85
2022/06/04 05:08:54;;;;;;;;;;;;;;;17.82;nan;99457.50;5005203;28;19980;-85
2022/06/04 05:11:23;;;;;;;;;;;;;;;17.82;nan;99442.44;5002139;28;19976;-85
2022/06/04 05:13:49;;;;;;;;;;;;;;;17.86;nan;99448.28;4995596;28;19984;-85
2022/06/04 05:16:18;;;;;;;;;;;;;;;17.90;nan;99444.31;5007027;28;20359;-85
2022/06/04 05:18:44;;;;;;;;;;;;;;;17.95;nan;99442.06;5011175;28;20384;-86
2022/06/04 05:21:21;;;;;;;;;;;;;;;17.98;nan;99424.97;5006668;28;19973;-85
2022/06/04 05:23:47;;;;;;;;;;;;;;;18.01;nan;99422.00;5009562;28;19999;-85
2022/06/04 05:26:13;;;;;;;;;;;;;;;18.04;nan;99421.75;5011493;28;20488;-85
2022/06/04 05:28:38;;;;;;;;;;;;;;;18.09;nan;99430.06;5010192;28;19976;-85
2022/06/04 05:31:04;;;;;;;;;;;;;;;18.15;nan;99445.44;5014886;28;19979;-84
2022/06/04 05:33:29;;;;;;;;;;;;;;;18.23;nan;99468.63;5007395;28;20118;-85
2022/06/04 05:35:55;;;;;;;;;;;;;;;18.24;nan;99465.81;5013442;28;20070;-85
2022/06/04 05:38:20;;;;;;;;;;;;;;;18.22;nan;99456.31;5007172;28;20495;-85
2022/06/04 05:40:45;;;;;;;;;;;;;;;18.23;nan;99445.53;4996889;28;19976;-85
2022/06/04 05:43:10;;;;;;;;;;;;;;;18.28;nan;99453.88;4993397;28;20639;-85
2022/06/04 05:45:36;;;;;;;;;;;;;;;18.33;nan;99466.72;4999471;28;20087;-85
2022/06/04 05:48:01;;;;;;;;;;;;;;;18.36;nan;99466.41;4994193;28;19972;-85
2022/06/04 05:50:26;;;;;;;;;;;;;;;18.42;nan;99486.28;5007951;28;19976;-85
2022/06/04 05:52:52;;;;;;;;;;;;;;;18.51;nan;99522.59;5009160;28;19971;-85
2022/06/04 05:55:17;;;;;;;;;;;;;;;18.59;nan;99546.63;5004471;28;20407;-85
2022/06/04 05:57:43;;;;;;;;;;;;;;;18.65;nan;99569.13;5015228;28;20038;-84
2022/06/04 06:00:09;;;;;;;;;;;;;;;18.66;nan;99571.63;5015265;28;19972;-84
2022/06/04 06:02:37;;;;;;;;;;;;;;;18.65;nan;99566.44;5009255;28;19975;-85
2022/06/04 06:05:03;;;;;;;;;;;;;;;18.63;nan;99537.31;5009668;28;19969;-85
2022/06/04 06:07:29;;;;;;;;;;;;;;;18.62;nan;99519.69;5014080;28;19979;-85
2022/06/04 06:09:54;;;;;;;;;;;;;;;18.59;nan;99530.66;5012227;28;20058;-84
2022/06/04 06:12:19;;;;;;;;;;;;;;;18.59;nan;99549.28;5008122;28;20373;-84
2022/06/04 06:14:44;;;;;;;;;;;;;;;18.66;nan;99546.84;5007443;28;20492;-85
2022/06/04 06:17:10;;;;;;;;;;;;;;;18.76;nan;99531.66;5004113;28;20022;-84
2022/06/04 06:19:35;;;;;;;;;;;;;;;18.84;nan;99528.25;5002369;28;19972;-84
2022/06/04 06:22:00;;;;;;;;;;;;;;;18.83;nan;99535.41;5006644;28;20446;-84
2022/06/04 06:24:26;;;;;;;;;;;;;;;18.84;nan;99537.06;5014915;28;20004;-84
2022/06/04 06:26:53;;;;;;;;;;;;;;;19.02;nan;99542.41;5010115;28;20043;-84
2022/06/04 06:29:19;;;;;;;;;;;;;;;19.58;nan;99538.47;5000283;28;19979;-85
2022/06/04 06:31:45;;;;;;;;;;;;;;;20.02;nan;99545.56;5001928;28;19965;-85
2022/06/04 06:34:10;;;;;;;;;;;;;;;20.19;nan;99541.97;5009406;28;20517;-84
2022/06/04 06:36:39;;;;;;;;;;;;;;;20.28;nan;99537.47;5013939;28;20067;-86
2022/06/04 06:39:04;;;;;;;;;;;;;;;20.71;nan;99532.94;4999932;28;20017;-85
2022/06/04 06:41:29;;;;;;;;;;;;;;;20.96;nan;99539.16;5001044;28;19997;-85
2022/06/04 06:43:55;;;;;;;;;;;;;;;20.94;nan;99539.31;5007550;28;19983;-86
2022/06/04 06:46:28;;;;;;;;;;;;;;;20.86;nan;99539.31;5008910;28;20000;-85
2022/06/04 06:49:14;;;;;;;;;;;;;;;20.70;nan;99545.47;5006659;28;19995;-85
2022/06/04 06:51:45;;;;;;;;;;;;;;;20.67;nan;99556.47;4996533;28;20328;-85
2022/06/04 06:54:11;;;;;;;;;;;;;;;20.62;nan;99557.97;5004471;28;19968;-86
2022/06/04 06:56:39;;;;;;;;;;;;;;;20.53;nan;99549.94;5005927;28;20070;-86
2022/06/04 06:59:04;;;;;;;;;;;;;;;20.49;nan;99543.22;5002485;28;19973;-86
2022/06/04 07:01:31;;;;;;;;;;;;;;;20.57;nan;99537.09;5006145;28;19972;-86
2022/06/04 07:03:57;;;;;;;;;;;;;;;20.56;nan;99543.44;5001041;28;20533;-86
2022/06/04 07:06:39;;;;;;;;;;;;;;;20.53;nan;99541.94;5002397;28;20042;-86
2022/06/04 07:09:06;;;;;;;;;;;;;;;20.96;nan;99537.31;5004980;28;20732;-85
2022/06/04 07:11:31;;;;;;;;;;;;;;;21.46;nan;99543.50;5005587;28;20026;-85
2022/06/04 07:13:57;;;;;;;;;;;;;;;21.68;nan;99541.13;5006415;28;19968;-85
2022/06/04 07:16:22;;;;;;;;;;;;;;;21.81;nan;99539.56;5007719;28;20310;-85
2022/06/04 07:18:48;;;;;;;;;;;;;;;21.94;nan;99528.34;5004276;28;19955;-85
2022/06/04 07:21:13;;;;;;;;;;;;;;;22.10;nan;99522.09;5002795;28;19967;-85
2022/06/04 07:23:39;;;;;;;;;;;;;;;22.34;nan;99513.16;5000926;28;20050;-84
2022/06/04 07:26:05;;;;;;;;;;;;;;;22.56;nan;99505.34;5001247;28;20586;-85
2022/06/04 07:28:32;;;;;;;;;;;;;;;22.78;nan;99519.72;4999521;28;19984;-85
2022/06/04 07:30:59;;;;;;;;;;;;;;;22.96;nan;99518.44;4997845;28;20004;-86
2022/06/04 07:33:27;;;;;;;;;;;;;;;23.35;nan;99520.09;5007097;28;19961;-85
2022/06/04 07:35:52;;;;;;;;;;;;;;;23.73;nan;99529.97;4958513;28;20004;-85
2022/06/04 07:38:18;;;;;;;;;;;;;;;23.87;nan;99539.88;4979134;28;19972;-86
2022/06/04 07:40:44;;;;;;;;;;;;;;;23.99;nan;99532.19;4988443;28;20506;-85
2022/06/04 07:43:10;;;;;;;;;;;;;;;24.53;nan;99525.66;4976481;28;20609;-85
2022/06/04 07:45:36;;;;;;;;;;;;;;;25.24;nan;99514.97;4981348;28;20040;-85
2022/06/04 07:48:02;;;;;;;;;;;;;;;25.67;nan;99504.09;4987684;28;19964;-85
2022/06/04 07:50:28;;;;;;;;;;;;;;;25.74;nan;99510.34;4978561;28;20584;-85
2022/06/04 07:52:53;;;;;;;;;;;;;;;25.46;nan;99513.06;4987339;28;19972;-85
2022/06/04 07:55:18;;;;;;;;;;;;;;;25.31;nan;99510.50;4983617;28;19975;-85
2022/06/04 07:57:44;;;;;;;;;;;;;;;25.20;nan;99511.03;4984684;28;20521;-85
2022/06/04 08:00:10;;;;;;;;;;;;;;;25.11;nan;99502.22;4981364;28;20007;-85
2022/06/04 08:02:39;;;;;;;;;;;;;;;24.93;nan;99508.91;4980923;28;19988;-85
2022/06/04 08:05:04;;;;;;;;;;;;;;;24.63;nan;99512.75;4986902;28;19977;-85
2022/06/04 08:07:29;;;;;;;;;;;;;;;24.46;nan;99521.03;4981034;28;19993;-85
2022/06/04 08:09:55;;;;;;;;;;;;;;;24.15;nan;99520.44;4982315;28;20377;-85
2022/06/04 08:12:20;;;;;;;;;;;;;;;23.84;nan;99527.69;4983768;28;20075;-84
2022/06/04 08:14:46;;;;;;;;;;;;;;;23.56;nan;99521.25;4987723;28;20349;-84
2022/06/04 08:17:14;;;;;;;;;;;;;;;23.26;nan;99521.22;4987575;28;20056;-84
2022/06/04 08:19:40;;;;;;;;;;;;;;;23.01;nan;99517.91;5003571;28;20396;-84
2022/06/04 08:22:06;;;;;;;;;;;;;;;22.93;nan;99532.16;5000804;28;20724;-84
2022/06/04 08:24:31;;;;;;;;;;;;;;;22.88;nan;99545.25;4999432;28;20056;-85
2022/06/04 08:27:02;;;;;;;;;;;;;;;22.81;nan;99530.09;5005183;28;20003;-85
2022/06/04 08:29:32;;;;;;;;;;;;;;;22.67;nan;99518.31;5004736;28;20349;-85
2022/06/04 08:31:58;;;;;;;;;;;;;;;22.58;nan;99524.72;5009262;28;19984;-84
2022/06/04 08:34:24;;;;;;;;;;;;;;;22.48;nan;99524.94;5004765;28;19983;-85
2022/06/04 08:36:49;;;;;;;;;;;;;;;22.39;nan;99540.22;5007202;28;19976;-85
2022/06/04 08:39:14;;;;;;;;;;;;;;;22.35;nan;99543.41;5000548;28;19977;-85
2022/06/04 08:41:49;;;;;;;;;;;;;;;22.35;nan;99540.75;5003794;28;19972;-85
2022/06/04 08:44:26;;;;;;;;;;;;;;;22.27;nan;99545.13;4997392;28;19983;-85
2022/06/04 08:46:54;;;;;;;;;;;;;;;22.47;nan;99534.00;5011516;28;20003;-85
2022/06/04 08:49:40;;;;;;;;;;;;;;;22.96;nan;99531.84;5004041;28;20025;-85
2022/06/04 08:52:10;;;;;;;;;;;;;;;23.50;nan;99538.06;5005611;28;19979;-84
2022/06/04 08:57:34;;;;;;;;;;;;;;;23.84;nan;99559.88;5006945;28;20541;-85
2022/06/04 09:00:11;;;;;;;;;;;;;;;23.71;nan;99572.19;5005324;28;19968;-85
2022/06/04 09:02:52;;;;;;;;;;;;;;;23.45;nan;99569.97;4998707;28;20071;-85
2022/06/04 09:05:17;;;;;;;;;;;;;;;23.16;nan;99558.13;5000905;28;20077;-85
2022/06/04 09:07:49;;;;;;;;;;;;;;;23.18;nan;99548.06;5009304;28;19976;-85
2022/06/04 09:10:22;;;;;;;;;;;;;;;23.49;nan;99555.97;5004700;28;20463;-85
2022/06/04 09:12:57;;;;;;;;;;;;;;;23.65;nan;99555.00;4994143;28;20406;-85
2022/06/04 09:15:22;;;;;;;;;;;;;;;23.65;nan;99560.34;5001761;28;19972;-86
2022/06/04 09:17:50;;;;;;;;;;;;;;;23.63;nan;99559.72;5005271;28;20456;-86
2022/06/04 09:20:18;;;;;;;;;;;;;;;23.61;nan;99565.25;5008186;28;19980;-86
2022/06/04 09:22:49;;;;;;;;;;;;;;;23.59;nan;99567.28;4995523;28;19972;-84
2022/06/04 09:25:16;;;;;;;;;;;;;;;23.53;nan;99577.91;4999050;28;19992;-85
2022/06/04 09:28:11;;;;;;;;;;;;;;;23.39;nan;99576.88;4995085;28;19996;-85
2022/06/04 09:30:40;;;;;;;;;;;;;;;23.28;nan;99580.00;4982290;28;19972;-85
2022/06/04 09:33:26;;;;;;;;;;;;;;;23.18;nan;99583.75;5007660;28;19968;-85
2022/06/04 09:35:55;;;;;;;;;;;;;;;23.25;nan;99585.69;4996740;28;20118;-86
2022/06/04 09:38:23;;;;;;;;;;;;;;;23.42;nan;99576.50;5010177;28;20249;-86
2022/06/04 09:41:01;;;;;;;;;;;;;;;23.81;nan;99579.00;5000950;28;20031;-85
2022/06/04 09:43:27;;;;;;;;;;;;;;;24.05;nan;99585.94;4994893;28;20075;-86
2022/06/04 09:45:53;;;;;;;;;;;;;;;24.04;nan;99586.13;5002233;28;20006;-85
2022/06/04 09:48:22;;;;;;;;;;;;;;;24.05;nan;99577.88;5001253;28;19973;-87
2022/06/04 09:50:51;;;;;;;;;;;;;;;24.32;nan;99583.59;5005424;28;20401;-88
2022/06/04 09:53:19;;;;;;;;;;;;;;;24.62;nan;99588.94;5004150;28;20457;-86
2022/06/04 09:55:47;;;;;;;;;;;;;;;24.62;nan;99588.94;5008651;28;19983;-86
2022/06/04 09:58:20;;;;;;;;;;;;;;;24.67;nan;99592.72;5003548;28;20062;-85
2022/06/04 10:01:04;;;;;;;;;;;;;;;24.99;nan;99592.47;5004665;28;20197;-87
2022/06/04 10:03:30;;;;;;;;;;;;;;;25.50;nan;99592.34;4997723;28;19968;-85
2022/06/04 10:06:08;;;;;;;;;;;;;;;25.73;nan;99586.69;5005840;28;20548;-85
2022/06/04 10:11:20;;;;;;;;;;;;;;;25.54;nan;99593.59;5003537;28;19975;-86
2022/06/04 10:13:53;;;;;;;;;;;;;;;25.71;nan;99592.28;5007490;28;19975;-86
2022/06/04 10:16:20;;;;;;;;;;;;;;;26.04;nan;99589.00;5005061;28;19976;-87
2022/06/04 10:18:59;;;;;;;;;;;;;;;26.46;nan;99589.81;5004287;28;19979;-86
2022/06/04 10:21:30;;;;;;;;;;;;;;;26.73;nan;99576.47;5004597;28;19972;-86
2022/06/04 10:23:57;;;;;;;;;;;;;;;26.87;nan;99575.47;5011174;28;20002;-85
2022/06/04 10:26:25;;;;;;;;;;;;;;;27.09;nan;99562.66;5008228;28;20083;-86
2022/06/04 10:28:59;;;;;;;;;;;;;;;27.19;nan;99576.56;5012010;28;21059;-86
2022/06/04 10:31:27;;;;;;;;;;;;;;;27.24;nan;99582.16;5009181;28;20073;-86
2022/06/04 10:33:58;;;;;;;;;;;;;;;27.37;nan;99573.25;5009904;28;20038;-86
2022/06/04 10:36:41;;;;;;;;;;;;;;;27.51;nan;99564.13;5005547;28;20624;-86
2022/06/04 10:39:15;;;;;;;;;;;;;;;27.38;nan;99568.69;5001396;28;19968;-85
2022/06/04 10:41:52;;;;;;;;;;;;;;;27.42;nan;99578.88;5001250;28;19972;-85
2022/06/04 10:44:29;;;;;;;;;;;;;;;27.35;nan;99569.94;5012313;28;20421;-86
2022/06/04 10:47:18;;;;;;;;;;;;;;;27.32;nan;99575.75;5012625;28;20106;-87
2022/06/04 10:49:55;;;;;;;;;;;;;;;27.10;nan;99573.22;4961379;28;19968;-86
2022/06/04 10:52:29;;;;;;;;;;;;;;;27.08;nan;99575.28;5002215;28;20025;-85
2022/06/04 10:55:06;;;;;;;;;;;;;;;27.18;nan;99574.09;5007895;28;20014;-85
2022/06/04 10:57:38;;;;;;;;;;;;;;;27.28;nan;99569.94;5011464;28;19960;-85
2022/06/04 11:00:20;;;;;;;;;;;;;;;27.25;nan;99572.25;5012772;28;19969;-87
2022/06/04 11:02:45;;;;;;;;;;;;;;;27.30;nan;99572.41;5002609;28;19972;-86
2022/06/04 11:05:14;;;;;;;;;;;;;;;27.26;nan;99577.41;5005634;28;20342;-87
2022/06/04 11:07:49;;;;;;;;;;;;;;;26.99;nan;99579.22;5001902;28;20453;-86
2022/06/04 11:10:17;;;;;;;;;;;;;;;26.88;nan;99577.13;4998528;28;20430;-86
2022/06/04 11:12:45;;;;;;;;;;;;;;;26.76;nan;99570.66;5004292;28;20098;-85
2022/06/04 11:15:17;;;;;;;;;;;;;;;26.87;nan;99572.78;4999766;28;19973;-86
2022/06/04 11:17:49;;;;;;;;;;;;;;;26.98;nan;99572.19;5001931;28;19972;-86
2022/06/04 11:20:20;;;;;;;;;;;;;;;27.05;nan;99567.59;5007094;28;20593;-85
2022/06/04 11:23:00;;;;;;;;;;;;;;;27.18;nan;99564.13;5007783;28;19978;-86
2022/06/04 11:25:25;;;;;;;;;;;;;;;27.38;nan;99566.81;4998862;28;20045;-85
2022/06/04 11:27:54;;;;;;;;;;;;;;;27.49;nan;99563.53;5002578;28;19992;-86
2022/06/04 11:30:25;;;;;;;;;;;;;;;27.52;nan;99564.97;5002233;28;20187;-86
2022/06/04 11:32:51;;;;;;;;;;;;;;;27.58;nan;99564.94;5003024;28;20007;-86
2022/06/04 11:35:27;;;;;;;;;;;;;;;27.67;nan;99562.03;4999548;28;20063;-86
2022/06/04 11:37:52;;;;;;;;;;;;;;;27.61;nan;99565.56;5001496;28;20345;-85
2022/06/04 11:40:37;;;;;;;;;;;;;;;27.57;nan;99559.75;5001671;28;20417;-85
2022/06/04 11:43:32;;;;;;;;;;;;;;;27.45;nan;99564.13;5003996;28;20000;-86
2022/06/04 11:46:05;;;;;;;;;;;;;;;27.17;nan;99556.22;4914064;28;19994;-86
2022/06/04 11:48:30;;;;;;;;;;;;;;;27.16;nan;99560.78;5005969;28;20375;-86
2022/06/04 11:51:01;;;;;;;;;;;;;;;27.17;nan;99553.53;5006705;28;19975;-86
2022/06/04 11:53:27;;;;;;;;;;;;;;;27.15;nan;99553.72;4995050;28;19976;-85
2022/06/04 11:55:55;;;;;;;;;;;;;;;27.20;nan;99558.53;4999683;28;20031;-86
2022/06/04 11:58:46;;;;;;;;;;;;;;;27.22;nan;99551.06;5005666;28;20040;-86
2022/06/04 12:01:14;;;;;;;;;;;;;;;26.99;nan;99546.88;4991339;28;19969;-86
2022/06/04 12:03:46;;;;;;;;;;;;;;;26.80;nan;99544.97;5006529;28;20433;-83
2022/06/04 12:06:18;;;;;;;;;;;;;;;26.82;nan;99541.06;4998561;28;19995;-85
2022/06/04 12:08:57;;;;;;;;;;;;;;;26.85;nan;99537.13;5001924;28;20099;-86
2022/06/04 12:11:49;;;;;;;;;;;;;;;26.87;nan;99525.09;5006239;28;20580;-85
2022/06/04 12:14:17;;;;;;;;;;;;;;;26.89;nan;99524.88;4959390;28;20186;-86
2022/06/04 12:17:01;;;;;;;;;;;;;;;26.97;nan;99526.53;4993642;28;19985;-85
2022/06/04 12:25:36;;;;;;;;;;;;;;;27.30;nan;99507.69;4994623;28;20112;-88
2022/06/04 12:28:03;;;;;;;;;;;;;;;27.35;nan;99510.59;4994601;28;20087;-85
2022/06/04 12:30:37;;;;;;;;;;;;;;;27.44;nan;99512.06;4995069;28;19968;-86
2022/06/04 12:33:11;;;;;;;;;;;;;;;27.47;nan;99503.53;5000315;28;20045;-86
2022/06/04 12:35:38;;;;;;;;;;;;;;;27.46;nan;99501.03;5003095;28;20624;-87
2022/06/04 12:38:11;;;;;;;;;;;;;;;27.38;nan;99499.38;5004603;28;20058;-86
2022/06/04 12:40:37;;;;;;;;;;;;;;;27.40;nan;99489.22;5003060;28;19983;-87
2022/06/04 12:43:02;;;;;;;;;;;;;;;27.43;nan;99490.66;5000021;28;19964;-88
2022/06/04 12:45:34;;;;;;;;;;;;;;;27.41;nan;99477.41;5006188;28;20896;-88
2022/06/04 12:47:59;;;;;;;;;;;;;;;27.42;nan;99483.63;4997912;28;19973;-87
2022/06/04 12:50:27;;;;;;;;;;;;;;;27.38;nan;99483.19;5002641;28;20027;-88
2022/06/04 12:52:56;;;;;;;;;;;;;;;27.36;nan;99480.72;4999635;28;20002;-87
2022/06/04 12:55:31;;;;;;;;;;;;;;;27.37;nan;99476.16;5007811;28;19972;-86
2022/06/04 12:58:23;;;;;;;;;;;;;;;27.46;nan;99480.28;5004456;28;20443;-87
2022/06/04 13:01:05;;;;;;;;;;;;;;;27.62;nan;99476.31;4997518;28;19976;-86
2022/06/04 13:03:33;;;;;;;;;;;;;;;27.65;nan;99477.75;4995968;28;19968;-86
2022/06/04 13:05:58;;;;;;;;;;;;;;;27.77;nan;99478.75;5002643;28;20535;-86
2022/06/04 13:08:33;;;;;;;;;;;;;;;27.90;nan;99470.66;5001100;28;19968;-87
2022/06/04 13:11:21;;;;;;;;;;;;;;;27.97;nan;99474.13;5002155;28;20030;-85
2022/06/04 13:13:46;;;;;;;;;;;;;;;27.95;nan;99478.94;4961787;28;19972;-87
2022/06/04 13:16:20;;;;;;;;;;;;;;;27.94;nan;99479.97;5001961;28;20525;-85
2022/06/04 13:18:55;;;;;;;;;;;;;;;28.00;nan;99481.84;4997407;28;19979;-85
2022/06/04 13:21:21;;;;;;;;;;;;;;;28.13;nan;99486.31;5001788;28;19982;-86
2022/06/04 13:23:56;;;;;;;;;;;;;;;28.17;nan;99489.44;4994339;28;20016;-86
2022/06/04 13:26:22;;;;;;;;;;;;;;;28.17;nan;99482.16;5001065;28;20469;-85
2022/06/04 13:28:49;;;;;;;;;;;;;;;28.22;nan;99487.75;4995662;28;19972;-87
2022/06/04 13:31:28;;;;;;;;;;;;;;;28.22;nan;99484.22;5009503;28;19975;-86
2022/06/04 13:33:54;;;;;;;;;;;;;;;28.22;nan;99479.66;5006562;28;20085;-85
2022/06/04 13:36:22;;;;;;;;;;;;;;;28.31;nan;99487.50;4999778;28;20047;-86
2022/06/04 13:38:48;;;;;;;;;;;;;;;28.31;nan;99485.63;5001630;28;19984;-85